To NAV CANADA Home Page Login to a new session Search on AWWS site Disclaimer Vers la page française équivalente Tips FAQ What's new on the site To the Forecasts and Observations / NOTAM section To "File a Flight Plan" website Publications and other links Update of the User's profile FIC Telephone Numbers My Weather Data Folder Route Weather Data Regional Weather Data Local Weather Data To the Forecasts and Observations / NOTAM section
Request Generated 11/16/2018 at 01:23:40 UTC . Weather information available at that time is displayed.

METAR/TAF

BEAVER CREEK/YT    

LWIS CYXQ 160100Z AUTO 08003KT M11/M12 A3033=
LWIS CYXQ 160000Z AUTO 15005KT 090V170 M11/M12 A3032=
METAR CYXQ 152300Z 07005KT 10SM -SN BKN012 OVC025 M11/M12 A3032 RMK ST5SC3 PCPN VRY LGT/CLIMAT -9.9/-10.8/TR CM/TR MWE/LAST STFD OBS
/NXT 161700Z SLP323=

CYXQ - No TAF is issued for this station

Your time UTC time
Weather data provided by Environment Canada and NAV CANADA